Time;durP1;ratioP1;P1;durP2;ratioP2;P2;SDS_P1;SDS_P2;PMS_P1;PMS_P2;Temp;Humidity;BMP_temperature;BMP_pressure;BME280_temperature;BME280_humidity;BME280_pressure;Samples;Min_cycle;Max_cycle;Signal;HPM_P1;HPM_P2
2021/10/18 00:01:55;;;;;;;0.90;0.80;;;11.80;99.90;;;;;;5121591;27;20224;-76
2021/10/18 00:04:22;;;;;;;0.70;0.70;;;11.80;99.90;;;;;;5117488;27;20235;-75
2021/10/18 00:06:49;;;;;;;1.53;0.70;;;11.80;99.90;;;;;;5120734;27;20195;-75
2021/10/18 00:09:18;;;;;;;0.57;0.57;;;11.80;99.90;;;;;;5118404;27;20204;-75
2021/10/18 00:11:45;;;;;;;0.67;0.60;;;11.70;99.90;;;;;;5108112;28;20196;-75
2021/10/18 00:14:12;;;;;;;1.60;0.80;;;11.70;99.90;;;;;;5108228;28;20247;-75
2021/10/18 00:16:40;;;;;;;0.50;0.50;;;11.70;99.90;;;;;;5108923;28;20232;-75
2021/10/18 00:19:08;;;;;;;0.50;0.50;;;11.60;99.90;;;;;;5106675;28;20226;-75
2021/10/18 00:21:35;;;;;;;0.60;0.60;;;11.50;99.90;;;;;;5106929;28;20656;-75
2021/10/18 00:24:02;;;;;;;0.97;0.70;;;11.40;99.90;;;;;;5106877;28;20203;-75
2021/10/18 00:26:31;;;;;;;0.70;0.70;;;11.40;99.90;;;;;;5111891;27;20241;-75
2021/10/18 00:28:57;;;;;;;1.03;0.70;;;11.30;99.90;;;;;;5109363;27;20228;-75
2021/10/18 00:31:25;;;;;;;0.60;0.60;;;11.20;99.90;;;;;;5100252;27;20294;-76
2021/10/18 00:33:52;;;;;;;0.60;0.60;;;11.10;99.90;;;;;;5112624;27;20212;-75
2021/10/18 00:36:19;;;;;;;0.60;0.60;;;11.10;99.90;;;;;;5114109;27;20199;-74
2021/10/18 00:38:46;;;;;;;0.60;0.60;;;11.10;99.90;;;;;;5114234;27;20835;-75
2021/10/18 00:41:13;;;;;;;0.60;0.60;;;11.00;99.90;;;;;;5114538;27;20201;-75
2021/10/18 00:43:45;;;;;;;0.53;0.53;;;10.90;99.90;;;;;;5111503;27;20753;-75
2021/10/18 00:46:13;;;;;;;0.70;0.70;;;10.90;99.90;;;;;;5114895;27;20207;-74
2021/10/18 00:48:40;;;;;;;0.50;0.50;;;10.90;99.90;;;;;;5116301;27;20220;-75
2021/10/18 00:51:08;;;;;;;0.90;0.90;;;10.80;99.90;;;;;;5109806;27;20307;-75
2021/10/18 00:53:36;;;;;;;1.13;0.60;;;10.80;99.90;;;;;;5118170;27;20615;-74
2021/10/18 00:56:03;;;;;;;0.60;0.60;;;10.80;99.90;;;;;;5110283;27;20187;-75
2021/10/18 00:58:31;;;;;;;0.70;0.70;;;10.70;99.90;;;;;;5116346;27;20706;-74
2021/10/18 01:00:59;;;;;;;0.93;0.80;;;10.70;99.90;;;;;;5117696;27;20219;-75
2021/10/18 01:03:27;;;;;;;0.80;0.60;;;10.60;99.90;;;;;;5114362;27;20200;-75
2021/10/18 01:05:54;;;;;;;0.50;0.50;;;10.60;99.90;;;;;;5107222;28;20670;-74
2021/10/18 01:08:22;;;;;;;0.60;0.60;;;10.60;99.90;;;;;;5115124;27;20213;-75
2021/10/18 01:10:49;;;;;;;0.63;0.63;;;10.50;99.90;;;;;;5106538;28;20644;-75
2021/10/18 01:13:16;;;;;;;0.97;0.70;;;10.50;99.90;;;;;;5106490;28;20596;-75
2021/10/18 01:15:43;;;;;;;0.60;0.60;;;10.50;99.90;;;;;;5109189;27;20195;-74
2021/10/18 01:18:11;;;;;;;0.60;0.60;;;10.40;99.90;;;;;;5108086;28;20312;-74
2021/10/18 01:20:41;;;;;;;1.27;0.70;;;10.40;99.90;;;;;;5099750;28;20214;-75
2021/10/18 01:23:10;;;;;;;0.60;0.60;;;10.40;99.90;;;;;;5105857;28;20214;-75
2021/10/18 01:25:38;;;;;;;0.60;0.60;;;10.40;99.90;;;;;;5107329;28;20206;-75
2021/10/18 01:28:06;;;;;;;1.33;0.60;;;10.40;99.90;;;;;;5106674;28;20577;-75
2021/10/18 01:30:33;;;;;;;0.50;0.50;;;10.30;99.90;;;;;;5109164;28;20197;-75
2021/10/18 01:33:00;;;;;;;0.73;0.53;;;10.30;99.90;;;;;;5113339;28;20286;-75
2021/10/18 01:35:27;;;;;;;0.67;0.50;;;10.30;99.90;;;;;;5111091;28;20675;-76
2021/10/18 01:37:56;;;;;;;1.17;0.70;;;10.30;99.90;;;;;;5111489;28;20590;-75
2021/10/18 01:40:25;;;;;;;0.50;0.50;;;10.30;99.90;;;;;;5113380;27;20248;-75
2021/10/18 01:42:52;;;;;;;0.67;0.57;;;10.20;99.90;;;;;;5113460;27;20516;-75
2021/10/18 01:45:20;;;;;;;0.80;0.80;;;10.20;99.90;;;;;;5106933;28;20201;-75
2021/10/18 01:47:48;;;;;;;0.60;0.60;;;10.20;99.90;;;;;;5111096;28;20691;-75
2021/10/18 01:50:18;;;;;;;0.70;0.60;;;10.20;99.90;;;;;;5111326;28;20195;-75
2021/10/18 01:52:46;;;;;;;0.60;0.60;;;10.20;99.90;;;;;;5111040;28;20306;-75
2021/10/18 01:55:16;;;;;;;0.50;0.50;;;10.10;99.90;;;;;;5111973;28;20660;-75
2021/10/18 01:57:44;;;;;;;0.60;0.60;;;10.10;99.90;;;;;;5110179;28;20225;-75
2021/10/18 02:00:13;;;;;;;0.50;0.50;;;10.10;99.90;;;;;;5109759;28;20688;-75
2021/10/18 02:02:41;;;;;;;0.70;0.50;;;10.10;99.90;;;;;;5110524;28;20219;-75
2021/10/18 02:05:08;;;;;;;0.40;0.40;;;10.10;99.90;;;;;;5120841;27;20749;-76
2021/10/18 02:07:35;;;;;;;1.90;0.77;;;10.00;99.90;;;;;;5117862;27;20203;-75
2021/10/18 02:10:02;;;;;;;0.43;0.43;;;10.00;99.90;;;;;;5115822;27;20193;-75
2021/10/18 02:12:31;;;;;;;0.73;0.60;;;10.00;99.90;;;;;;5109260;28;20775;-74
2021/10/18 02:14:58;;;;;;;0.60;0.60;;;10.00;99.90;;;;;;5110248;28;20585;-75
2021/10/18 02:17:25;;;;;;;1.27;0.60;;;10.00;99.90;;;;;;5111523;27;20732;-75
2021/10/18 02:19:54;;;;;;;0.80;0.80;;;10.00;99.90;;;;;;5111997;27;20256;-75
2021/10/18 02:22:21;;;;;;;0.93;0.70;;;10.00;99.90;;;;;;5109688;28;20196;-75
2021/10/18 02:24:48;;;;;;;0.73;0.73;;;9.90;99.90;;;;;;5113281;27;20203;-76
2021/10/18 02:27:15;;;;;;;0.70;0.70;;;9.90;99.90;;;;;;5113355;27;20207;-76
2021/10/18 02:29:44;;;;;;;0.60;0.60;;;9.90;99.90;;;;;;5110574;27;20227;-76
2021/10/18 02:32:11;;;;;;;0.90;0.90;;;9.90;99.90;;;;;;5105421;28;20199;-75
2021/10/18 02:34:38;;;;;;;1.00;0.80;;;9.80;99.90;;;;;;5128385;27;20218;-75
2021/10/18 02:37:05;;;;;;;1.33;0.50;;;9.80;99.90;;;;;;5115900;27;20707;-75
2021/10/18 02:39:32;;;;;;;1.03;0.70;;;9.80;99.90;;;;;;5115986;27;20286;-75
2021/10/18 02:41:59;;;;;;;1.07;0.70;;;9.80;99.90;;;;;;5113208;27;20279;-75
2021/10/18 02:44:26;;;;;;;0.80;0.80;;;9.80;99.90;;;;;;5110867;27;20190;-75
2021/10/18 02:46:54;;;;;;;0.60;0.60;;;9.80;99.90;;;;;;5110339;28;20295;-75
2021/10/18 02:49:22;;;;;;;0.70;0.70;;;9.70;99.90;;;;;;5109828;28;20202;-75
2021/10/18 02:51:49;;;;;;;0.70;0.70;;;9.70;99.90;;;;;;5109356;27;20207;-76
2021/10/18 02:54:16;;;;;;;0.97;0.60;;;9.70;99.90;;;;;;5110837;28;20678;-76
2021/10/18 02:56:44;;;;;;;0.50;0.50;;;9.70;99.90;;;;;;5111409;28;20278;-76
2021/10/18 02:59:12;;;;;;;0.53;0.53;;;9.70;99.90;;;;;;5109402;28;20216;-76
2021/10/18 03:01:39;;;;;;;0.60;0.60;;;9.70;99.90;;;;;;5109317;28;20206;-76
2021/10/18 03:04:08;;;;;;;0.60;0.60;;;9.60;99.90;;;;;;5108476;28;20250;-76
2021/10/18 03:06:35;;;;;;;0.53;0.53;;;9.60;99.90;;;;;;5111044;27;20644;-76
2021/10/18 03:09:02;;;;;;;0.70;0.70;;;9.60;99.90;;;;;;5110400;28;20214;-76
2021/10/18 03:11:29;;;;;;;0.50;0.40;;;9.60;99.90;;;;;;5108348;27;20199;-76
2021/10/18 03:13:56;;;;;;;0.50;0.50;;;9.60;99.90;;;;;;5107735;28;20204;-76
2021/10/18 03:16:23;;;;;;;1.10;0.60;;;9.60;99.90;;;;;;5110143;28;20210;-75
2021/10/18 03:18:50;;;;;;;0.60;0.60;;;9.50;99.90;;;;;;5109729;28;20271;-75
2021/10/18 03:21:19;;;;;;;1.83;0.73;;;9.50;99.90;;;;;;5110095;27;20216;-75
2021/10/18 03:23:46;;;;;;;1.07;0.60;;;9.50;99.90;;;;;;5108802;28;20309;-76
2021/10/18 03:26:15;;;;;;;1.63;0.90;;;9.50;99.90;;;;;;5109504;28;20199;-76
2021/10/18 03:28:42;;;;;;;0.50;0.50;;;9.50;99.90;;;;;;5108442;28;20194;-76
2021/10/18 03:31:09;;;;;;;1.10;0.70;;;9.40;99.90;;;;;;5110256;28;20205;-76
2021/10/18 03:33:36;;;;;;;2.20;0.60;;;9.40;99.90;;;;;;5111630;27;20696;-76
2021/10/18 03:36:04;;;;;;;0.93;0.70;;;9.40;99.90;;;;;;5114633;27;20201;-75
2021/10/18 03:38:33;;;;;;;0.63;0.43;;;9.40;99.90;;;;;;5111955;27;20227;-75
2021/10/18 03:41:01;;;;;;;0.70;0.70;;;9.40;99.90;;;;;;5112185;27;20230;-75
2021/10/18 03:43:28;;;;;;;0.70;0.60;;;9.40;99.90;;;;;;5104234;28;20204;-75
2021/10/18 03:45:57;;;;;;;0.77;0.77;;;9.30;99.90;;;;;;5112719;27;20224;-76
2021/10/18 03:48:24;;;;;;;0.73;0.70;;;9.30;99.90;;;;;;5112044;27;20500;-76
2021/10/18 03:50:51;;;;;;;0.63;0.63;;;9.30;99.90;;;;;;5111429;27;20656;-76
2021/10/18 03:53:19;;;;;;;0.57;0.50;;;9.30;99.90;;;;;;5108032;27;20208;-76
2021/10/18 03:55:48;;;;;;;0.77;0.50;;;9.30;99.90;;;;;;5113607;27;20198;-76
2021/10/18 03:58:15;;;;;;;0.93;0.40;;;9.30;99.90;;;;;;5112662;27;20217;-76
2021/10/18 04:00:42;;;;;;;0.73;0.73;;;9.30;99.90;;;;;;5114215;27;20673;-76
2021/10/18 04:03:09;;;;;;;0.50;0.50;;;9.20;99.90;;;;;;5109276;27;20338;-76
2021/10/18 04:05:36;;;;;;;1.93;0.77;;;9.20;99.90;;;;;;5112149;27;20229;-76
2021/10/18 04:08:05;;;;;;;1.17;0.70;;;9.20;99.90;;;;;;5114308;27;20202;-76
2021/10/18 04:10:32;;;;;;;0.70;0.70;;;9.20;99.90;;;;;;5108555;28;20554;-76
2021/10/18 04:13:01;;;;;;;0.90;0.80;;;9.20;99.90;;;;;;5108308;28;20203;-75
2021/10/18 04:15:28;;;;;;;0.80;0.80;;;9.10;99.90;;;;;;5107262;28;20200;-76
2021/10/18 04:17:55;;;;;;;1.10;0.80;;;9.10;99.90;;;;;;5108236;28;20225;-76
2021/10/18 04:20:22;;;;;;;1.07;0.80;;;9.10;99.90;;;;;;5102781;28;20194;-75
2021/10/18 04:22:49;;;;;;;0.60;0.60;;;9.10;99.90;;;;;;5104564;28;20298;-75
2021/10/18 04:25:17;;;;;;;2.00;1.10;;;9.10;99.90;;;;;;5107633;28;20254;-75
2021/10/18 04:27:44;;;;;;;0.93;0.90;;;9.10;99.90;;;;;;5108928;28;20191;-75
2021/10/18 04:30:13;;;;;;;0.70;0.70;;;9.00;99.90;;;;;;5101020;28;20275;-75
2021/10/18 04:32:40;;;;;;;0.70;0.70;;;9.10;99.90;;;;;;5113512;27;20213;-75
2021/10/18 04:35:07;;;;;;;0.67;0.67;;;9.10;99.90;;;;;;5110636;27;20199;-75
2021/10/18 04:37:34;;;;;;;0.73;0.60;;;9.00;99.90;;;;;;5115412;27;20199;-76
2021/10/18 04:40:02;;;;;;;0.77;0.77;;;9.00;99.90;;;;;;5111878;27;20610;-76
2021/10/18 04:42:29;;;;;;;0.63;0.63;;;9.00;99.90;;;;;;5111916;27;20191;-75
2021/10/18 04:44:56;;;;;;;0.70;0.70;;;9.00;99.90;;;;;;5108329;28;20193;-75
2021/10/18 04:47:24;;;;;;;0.90;0.90;;;9.00;99.90;;;;;;5112082;27;20215;-75
2021/10/18 04:49:51;;;;;;;1.47;0.77;;;9.00;99.90;;;;;;5112838;27;20201;-75
2021/10/18 04:52:18;;;;;;;0.90;0.90;;;9.00;99.90;;;;;;5112105;27;20194;-76
2021/10/18 04:54:45;;;;;;;0.97;0.97;;;9.00;99.90;;;;;;5111128;27;20210;-75
2021/10/18 04:57:13;;;;;;;3.50;1.60;;;9.00;99.90;;;;;;5114274;27;20534;-75
2021/10/18 04:59:40;;;;;;;1.40;1.30;;;9.00;99.90;;;;;;5107544;28;20218;-75
2021/10/18 05:02:07;;;;;;;0.90;0.90;;;8.90;99.90;;;;;;5114649;27;20698;-74
2021/10/18 05:04:35;;;;;;;1.00;1.00;;;8.90;99.90;;;;;;5106674;28;20232;-75
2021/10/18 05:07:02;;;;;;;1.00;1.00;;;8.90;99.90;;;;;;5115102;27;20291;-74
2021/10/18 05:09:30;;;;;;;1.13;1.03;;;8.90;99.90;;;;;;5107837;28;20224;-75
2021/10/18 05:11:57;;;;;;;1.87;1.30;;;8.90;99.90;;;;;;5107738;28;20279;-75
2021/10/18 05:14:24;;;;;;;1.43;1.00;;;8.90;99.90;;;;;;5119359;28;20704;-76
2021/10/18 05:16:52;;;;;;;1.07;1.07;;;8.90;99.90;;;;;;5120827;27;20217;-75
2021/10/18 05:19:19;;;;;;;1.03;1.03;;;8.90;99.90;;;;;;5110837;28;20599;-75
2021/10/18 05:21:48;;;;;;;0.87;0.87;;;8.90;99.90;;;;;;5108551;28;20201;-75
2021/10/18 05:24:15;;;;;;;1.07;1.00;;;8.90;99.90;;;;;;5109645;28;20225;-75
2021/10/18 05:26:42;;;;;;;1.23;1.03;;;8.90;99.90;;;;;;5098644;28;20197;-75
2021/10/18 05:29:09;;;;;;;0.90;0.90;;;8.90;99.90;;;;;;5109942;28;20206;-75
2021/10/18 05:31:36;;;;;;;1.40;1.10;;;8.90;99.90;;;;;;5109939;28;20216;-75
2021/10/18 05:34:04;;;;;;;1.00;1.00;;;8.90;99.90;;;;;;5111879;28;20195;-75
2021/10/18 05:36:31;;;;;;;1.10;1.03;;;8.90;99.90;;;;;;5107477;28;20295;-75
2021/10/18 05:38:59;;;;;;;0.70;0.70;;;8.90;99.90;;;;;;5113520;27;20766;-75
2021/10/18 05:41:26;;;;;;;0.90;0.90;;;8.90;99.90;;;;;;5108717;28;20559;-75
2021/10/18 05:43:53;;;;;;;0.90;0.90;;;8.90;99.90;;;;;;5112414;27;20299;-75
2021/10/18 05:46:20;;;;;;;1.90;1.20;;;8.90;99.90;;;;;;5115220;27;20207;-75
2021/10/18 05:48:47;;;;;;;1.30;1.20;;;8.90;99.90;;;;;;5112012;28;20214;-75
2021/10/18 05:51:14;;;;;;;1.33;1.23;;;8.90;99.90;;;;;;5118372;27;20581;-76
2021/10/18 05:53:41;;;;;;;1.33;1.00;;;8.90;99.90;;;;;;5113743;28;20203;-75
2021/10/18 05:56:10;;;;;;;1.40;1.30;;;9.00;99.90;;;;;;5113477;27;20211;-76
2021/10/18 05:58:37;;;;;;;0.87;0.87;;;8.90;99.90;;;;;;5113865;28;20325;-76
2021/10/18 06:01:04;;;;;;;1.53;1.17;;;9.00;99.90;;;;;;5106317;28;20203;-76
2021/10/18 06:03:31;;;;;;;0.90;0.90;;;9.00;99.90;;;;;;5107444;28;20193;-76
2021/10/18 06:06:00;;;;;;;1.37;1.27;;;9.00;99.90;;;;;;5115512;28;20208;-76
2021/10/18 06:08:27;;;;;;;1.30;1.20;;;9.00;99.90;;;;;;5123038;27;20192;-76
2021/10/18 06:10:54;;;;;;;1.33;1.23;;;9.10;99.90;;;;;;5111933;28;20265;-76
2021/10/18 06:13:23;;;;;;;1.90;1.37;;;9.10;99.90;;;;;;5103927;28;20200;-76
2021/10/18 06:15:50;;;;;;;1.40;1.30;;;9.10;99.90;;;;;;5095145;28;20205;-75
2021/10/18 06:18:18;;;;;;;1.37;1.13;;;9.10;99.90;;;;;;5111451;27;20207;-76
2021/10/18 06:20:47;;;;;;;4.80;1.20;;;9.20;99.90;;;;;;5104287;27;20209;-75
2021/10/18 06:23:15;;;;;;;1.70;1.57;;;9.20;99.90;;;;;;5104450;27;20315;-76
2021/10/18 06:25:43;;;;;;;1.40;1.20;;;9.30;99.90;;;;;;5106522;27;20196;-77
2021/10/18 06:28:10;;;;;;;1.10;1.00;;;9.30;99.90;;;;;;5109325;27;20678;-76
2021/10/18 06:30:39;;;;;;;1.97;1.50;;;9.30;99.90;;;;;;5105564;27;20200;-75
2021/10/18 06:33:06;;;;;;;1.70;1.53;;;9.40;99.90;;;;;;5108230;28;20193;-75
2021/10/18 06:35:34;;;;;;;1.80;1.70;;;9.40;99.90;;;;;;5104717;27;20208;-76
2021/10/18 06:38:02;;;;;;;1.60;1.50;;;9.50;99.90;;;;;;5109704;27;20232;-75
2021/10/18 06:40:29;;;;;;;1.77;1.67;;;9.60;99.90;;;;;;5108364;27;20288;-75
2021/10/18 06:42:56;;;;;;;3.77;1.70;;;9.60;99.90;;;;;;5105364;27;20302;-75
2021/10/18 06:45:23;;;;;;;2.20;1.50;;;9.70;99.90;;;;;;5111596;27;20206;-75
2021/10/18 06:47:51;;;;;;;1.77;1.67;;;9.70;99.90;;;;;;5113156;27;20244;-76
2021/10/18 06:50:21;;;;;;;3.70;2.83;;;9.80;99.90;;;;;;5103912;27;20210;-75
2021/10/18 06:52:48;;;;;;;4.50;3.53;;;9.80;99.90;;;;;;5106838;28;20206;-76
2021/10/18 06:55:18;;;;;;;4.93;3.47;;;9.90;99.90;;;;;;5107976;27;20201;-76
2021/10/18 06:57:45;;;;;;;3.83;2.53;;;10.00;99.90;;;;;;5107702;28;20195;-76
2021/10/18 07:00:13;;;;;;;2.60;2.27;;;10.20;99.90;;;;;;5103216;28;20239;-75
2021/10/18 07:02:40;;;;;;;3.93;1.90;;;10.30;99.90;;;;;;5104287;28;20207;-76
2021/10/18 07:05:08;;;;;;;1.60;1.50;;;11.00;99.90;;;;;;5103494;28;20243;-76
2021/10/18 07:07:37;;;;;;;2.13;1.90;;;12.30;99.90;;;;;;5103585;27;20664;-76
2021/10/18 07:10:05;;;;;;;2.78;2.40;;;13.80;99.90;;;;;;5105552;28;20465;-76
2021/10/18 07:12:34;;;;;;;6.63;2.73;;;15.10;99.90;;;;;;5103646;28;20350;-76
2021/10/18 07:15:02;;;;;;;3.60;2.73;;;16.40;99.90;;;;;;5104763;28;20202;-76
2021/10/18 07:17:30;;;;;;;4.90;2.60;;;17.60;99.90;;;;;;5105065;28;20205;-75
2021/10/18 07:19:59;;;;;;;3.10;2.60;;;18.70;99.40;;;;;;5105558;27;20211;-76
2021/10/18 07:22:30;;;;;;;2.53;2.27;;;19.60;97.40;;;;;;5108995;27;20743;-78
2021/10/18 07:24:58;;;;;;;3.50;2.77;;;20.40;95.50;;;;;;5101793;27;20687;-79
2021/10/18 07:27:26;;;;;;;3.10;2.80;;;21.20;93.80;;;;;;5123792;27;20196;-78
2021/10/18 07:29:56;;;;;;;3.45;2.42;;;21.80;92.00;;;;;;5122135;27;20261;-78
2021/10/18 07:32:24;;;;;;;3.88;3.00;;;22.20;90.30;;;;;;5112804;27;20222;-78
2021/10/18 07:34:52;;;;;;;7.03;3.85;;;22.40;87.30;;;;;;5099830;27;20208;-78
2021/10/18 07:37:25;;;;;;;6.25;3.90;;;22.60;84.20;;;;;;5114304;27;20206;-78
2021/10/18 07:39:54;;;;;;;6.03;3.25;;;22.70;82.20;;;;;;5111593;27;20247;-78
2021/10/18 07:42:21;;;;;;;4.25;2.92;;;23.10;81.30;;;;;;5106488;28;20184;-78
2021/10/18 07:44:48;;;;;;;5.72;2.70;;;23.70;78.50;;;;;;5103313;28;20735;-77
2021/10/18 07:47:15;;;;;;;3.08;2.40;;;24.30;74.20;;;;;;5116647;27;20207;-77
2021/10/18 07:49:42;;;;;;;2.85;2.03;;;24.80;71.90;;;;;;5112634;27;20195;-76
2021/10/18 07:52:12;;;;;;;2.42;1.90;;;25.40;68.80;;;;;;5118648;27;20203;-76
2021/10/18 07:54:39;;;;;;;2.08;1.90;;;25.90;64.80;;;;;;5106456;27;20747;-77
2021/10/18 07:57:08;;;;;;;3.45;2.08;;;26.40;62.40;;;;;;5113864;27;20619;-77
2021/10/18 07:59:35;;;;;;;1.83;1.70;;;26.90;59.70;;;;;;5107114;27;20246;-77
2021/10/18 08:02:03;;;;;;;3.17;1.80;;;27.40;58.30;;;;;;5116376;27;20263;-77
2021/10/18 08:04:30;;;;;;;3.33;1.80;;;27.90;56.10;;;;;;5109528;28;20235;-77
2021/10/18 08:06:57;;;;;;;1.70;1.60;;;28.30;54.00;;;;;;5114653;27;20209;-78
2021/10/18 08:09:26;;;;;;;1.88;1.65;;;28.80;52.30;;;;;;5108311;28;20421;-78
2021/10/18 08:11:53;;;;;;;1.88;1.77;;;29.20;50.80;;;;;;5108887;28;20286;-77
2021/10/18 08:14:22;;;;;;;2.20;2.10;;;29.60;48.50;;;;;;5107268;27;20208;-77
2021/10/18 08:16:49;;;;;;;2.00;1.80;;;29.90;47.90;;;;;;5105482;28;20254;-76
2021/10/18 08:19:16;;;;;;;2.55;1.90;;;30.30;46.80;;;;;;5100318;28;20235;-77
2021/10/18 08:21:43;;;;;;;2.05;1.95;;;30.70;44.90;;;;;;5097009;28;20216;-77
2021/10/18 08:24:10;;;;;;;3.75;2.00;;;31.00;44.00;;;;;;5106816;28;20283;-77
2021/10/18 08:26:37;;;;;;;2.10;1.90;;;31.30;42.80;;;;;;5110739;27;20220;-77
2021/10/18 08:29:05;;;;;;;3.97;2.40;;;31.50;42.00;;;;;;5109543;27;20226;-77
2021/10/18 08:31:34;;;;;;;2.25;2.10;;;31.80;41.10;;;;;;5107935;28;20203;-77
2021/10/18 08:34:01;;;;;;;2.25;2.05;;;32.00;40.40;;;;;;5112178;27;20195;-77
2021/10/18 08:36:28;;;;;;;1.80;1.70;;;32.30;39.10;;;;;;5110758;27;20203;-76
2021/10/18 08:39:55;;;;;;;1.60;1.50;;;32.50;38.70;;;;;;5112983;27;20632;-76
2021/10/18 08:41:44;;;;;;;1.45;1.35;;;32.60;37.70;;;;;;5112860;27;20198;-76
2021/10/18 08:44:17;;;;;;;1.73;1.30;;;32.70;37.10;;;;;;5113054;27;20195;-76
2021/10/18 08:46:47;;;;;;;1.42;1.35;;;32.80;35.50;;;;;;5111313;27;20294;-76
2021/10/18 08:49:14;;;;;;;1.08;1.05;;;32.90;34.50;;;;;;5116585;27;20198;-76
2021/10/18 08:51:41;;;;;;;1.20;1.10;;;32.90;34.20;;;;;;5112543;27;20200;-76
2021/10/18 08:54:09;;;;;;;1.73;1.00;;;32.60;34.30;;;;;;5111889;27;20209;-76
2021/10/18 08:56:37;;;;;;;1.02;1.02;;;31.70;34.00;;;;;;5107620;28;20200;-76
2021/10/18 08:59:04;;;;;;;1.55;1.02;;;31.60;34.50;;;;;;5117114;27;20214;-76
2021/10/18 09:01:42;;;;;;;1.92;1.05;;;31.60;34.50;;;;;;5113749;27;20204;-76
2021/10/18 09:04:24;;;;;;;1.20;1.08;;;31.00;35.10;;;;;;5110377;27;20235;-76
2021/10/18 09:06:52;;;;;;;0.93;0.93;;;30.90;34.90;;;;;;5118704;27;20227;-76
2021/10/18 09:09:23;;;;;;;1.10;1.10;;;30.40;35.30;;;;;;5115629;27;20582;-76
2021/10/18 09:11:51;;;;;;;1.10;1.10;;;30.40;35.30;;;;;;5094830;28;20299;-76
2021/10/18 09:14:18;;;;;;;1.05;1.05;;;30.10;35.10;;;;;;5107364;28;20382;-76
2021/10/18 09:16:46;;;;;;;1.02;1.02;;;29.90;34.50;;;;;;5107637;28;20207;-76
2021/10/18 09:19:16;;;;;;;0.88;0.88;;;29.60;34.00;;;;;;5100365;28;20382;-76
2021/10/18 09:21:45;;;;;;;1.10;1.00;;;29.70;34.60;;;;;;5102950;28;20314;-76
2021/10/18 09:24:14;;;;;;;1.75;1.30;;;30.20;34.30;;;;;;5103325;28;20261;-76
2021/10/18 09:26:42;;;;;;;1.20;1.20;;;30.90;33.70;;;;;;5101506;28;20463;-78
2021/10/18 09:29:11;;;;;;;1.67;1.20;;;31.50;32.50;;;;;;5100979;28;21014;-77
2021/10/18 09:31:41;;;;;;;1.73;1.20;;;32.00;31.60;;;;;;5108268;28;20218;-77
2021/10/18 09:34:11;;;;;;;0.90;0.90;;;32.30;30.90;;;;;;5100574;28;20422;-76
2021/10/18 09:36:41;;;;;;;1.05;1.00;;;31.70;30.90;;;;;;5104699;28;20919;-76
2021/10/18 09:39:13;;;;;;;1.10;1.00;;;31.80;30.80;;;;;;5102736;28;20216;-76
2021/10/18 09:41:44;;;;;;;0.85;0.85;;;31.50;31.30;;;;;;5099882;28;20634;-77
2021/10/18 09:44:22;;;;;;;1.13;1.10;;;31.50;31.60;;;;;;5104979;28;20231;-76
2021/10/18 09:47:16;;;;;;;1.10;1.10;;;32.00;31.20;;;;;;5099820;28;20215;-77
2021/10/18 10:51:28;;;;;;;1.10;1.10;;;35.40;26.00;;;;;;5105546;27;20705;-74
2021/10/18 10:53:59;;;;;;;1.05;1.05;;;35.50;26.10;;;;;;5107000;28;20195;-74
2021/10/18 10:56:32;;;;;;;1.10;1.10;;;35.50;26.00;;;;;;5101054;27;20195;-75
2021/10/18 10:59:18;;;;;;;1.25;1.20;;;35.50;25.70;;;;;;5105877;27;20261;-74
2021/10/18 11:01:48;;;;;;;1.05;1.00;;;35.50;25.50;;;;;;5107482;28;20568;-75
2021/10/18 11:04:45;;;;;;;0.85;0.85;;;35.50;26.00;;;;;;5104840;27;20232;-75
2021/10/18 11:07:15;;;;;;;0.90;0.90;;;35.10;25.10;;;;;;5104267;28;20548;-75
2021/10/18 11:09:44;;;;;;;1.17;1.02;;;35.00;25.30;;;;;;5105477;27;20195;-74
2021/10/18 11:12:21;;;;;;;1.02;1.02;;;34.70;25.10;;;;;;5105146;27;20199;-73
2021/10/18 11:14:57;;;;;;;1.60;1.13;;;34.20;25.50;;;;;;5109250;27;20430;-74
2021/10/18 11:17:25;;;;;;;1.17;1.17;;;33.30;26.40;;;;;;5105068;28;20450;-74
2021/10/18 11:19:56;;;;;;;1.00;1.00;;;32.80;26.30;;;;;;5103262;28;20439;-74
2021/10/18 11:22:28;;;;;;;0.90;0.90;;;32.60;26.40;;;;;;5116469;27;20197;-74
2021/10/18 11:24:56;;;;;;;1.10;1.10;;;32.20;26.50;;;;;;5105357;27;20218;-75
2021/10/18 11:27:28;;;;;;;0.90;0.90;;;31.50;26.50;;;;;;5103348;28;20523;-74
2021/10/18 11:30:02;;;;;;;3.47;1.00;;;30.70;27.00;;;;;;5102098;28;20192;-74
2021/10/18 11:32:31;;;;;;;1.90;1.27;;;29.80;27.60;;;;;;5108935;27;20203;-74
2021/10/18 11:35:15;;;;;;;1.00;0.90;;;28.90;27.50;;;;;;5109931;27;20423;-74
2021/10/18 11:37:50;;;;;;;0.88;0.80;;;27.80;28.10;;;;;;5109150;27;20945;-74
2021/10/18 11:40:20;;;;;;;2.05;0.82;;;26.70;28.90;;;;;;5103890;27;20230;-74
2021/10/18 11:42:52;;;;;;;0.85;0.85;;;26.00;29.60;;;;;;5103032;27;20237;-74
2021/10/18 11:45:22;;;;;;;1.08;1.05;;;25.10;30.20;;;;;;5097616;27;20200;-73
2021/10/18 11:47:49;;;;;;;0.80;0.80;;;24.30;31.10;;;;;;5104310;27;20199;-74
2021/10/18 11:50:22;;;;;;;0.63;0.63;;;23.70;31.70;;;;;;5114720;27;20298;-74
2021/10/18 11:52:54;;;;;;;0.77;0.60;;;23.40;32.10;;;;;;5117822;27;20196;-74
2021/10/18 11:55:24;;;;;;;0.70;0.70;;;23.40;33.30;;;;;;5113297;27;20636;-75
2021/10/18 11:57:53;;;;;;;0.88;0.85;;;23.10;32.80;;;;;;5112081;27;20522;-73
2021/10/18 12:00:27;;;;;;;0.52;0.52;;;23.00;33.10;;;;;;5118289;27;20734;-74
2021/10/18 12:02:59;;;;;;;2.85;0.70;;;23.00;33.40;;;;;;5115952;27;20203;-74
2021/10/18 12:05:28;;;;;;;1.02;0.93;;;22.90;33.60;;;;;;5106300;27;20331;-74
2021/10/18 12:07:56;;;;;;;1.00;0.70;;;22.60;34.10;;;;;;5097277;27;20524;-73
2021/10/18 12:10:26;;;;;;;0.75;0.70;;;22.50;34.70;;;;;;5100937;27;20440;-74
2021/10/18 12:13:12;;;;;;;0.73;0.73;;;22.50;35.00;;;;;;5101061;28;20997;-74
2021/10/18 12:15:57;;;;;;;0.60;0.60;;;22.50;35.00;;;;;;5102736;28;20200;-74
2021/10/18 12:18:27;;;;;;;1.30;0.80;;;22.30;35.10;;;;;;5103834;27;20208;-74
2021/10/18 12:20:55;;;;;;;0.70;0.60;;;22.10;35.30;;;;;;5103415;27;20443;-74
2021/10/18 12:23:26;;;;;;;0.80;0.80;;;22.10;36.60;;;;;;5102815;27;20946;-74
2021/10/18 12:26:03;;;;;;;0.88;0.75;;;22.10;36.20;;;;;;5101300;27;20249;-73
2021/10/18 12:28:49;;;;;;;0.90;0.90;;;21.90;36.30;;;;;;5099378;28;21097;-74
2021/10/18 12:31:38;;;;;;;0.70;0.70;;;21.90;36.50;;;;;;5110389;27;20423;-74
2021/10/18 12:34:17;;;;;;;0.63;0.63;;;21.70;36.50;;;;;;5102357;27;20447;-75
2021/10/18 12:36:53;;;;;;;0.70;0.70;;;21.60;36.80;;;;;;5103209;27;20431;-75
2021/10/18 12:39:45;;;;;;;0.80;0.80;;;21.70;37.10;;;;;;5103992;27;20952;-75
2021/10/18 12:42:14;;;;;;;0.70;0.70;;;21.60;37.00;;;;;;5106989;27;20196;-75
2021/10/18 12:44:43;;;;;;;0.93;0.90;;;21.50;37.10;;;;;;5104905;27;20195;-74
2021/10/18 12:47:19;;;;;;;0.60;0.60;;;21.40;37.20;;;;;;5096422;28;20632;-74
2021/10/18 12:49:53;;;;;;;0.70;0.70;;;21.20;37.30;;;;;;5099831;27;20426;-75
2021/10/18 12:52:28;;;;;;;0.65;0.65;;;21.30;37.70;;;;;;5103631;27;20276;-74
2021/10/18 12:54:56;;;;;;;0.70;0.70;;;21.10;37.80;;;;;;5101954;27;20223;-75
2021/10/18 12:57:26;;;;;;;0.80;0.80;;;20.90;37.90;;;;;;5102181;27;20196;-74
2021/10/18 13:00:07;;;;;;;0.70;0.63;;;20.80;38.00;;;;;;5099514;27;20202;-75
2021/10/18 13:02:36;;;;;;;0.70;0.70;;;20.60;38.00;;;;;;5097771;27;20445;-75
2021/10/18 13:05:15;;;;;;;1.40;0.75;;;20.60;38.60;;;;;;5102598;28;20230;-75
2021/10/18 13:07:45;;;;;;;0.73;0.73;;;20.40;38.70;;;;;;5101597;27;20872;-75
2021/10/18 13:10:16;;;;;;;0.75;0.68;;;20.20;38.70;;;;;;5102297;27;20198;-75
2021/10/18 13:12:44;;;;;;;0.70;0.70;;;20.10;38.90;;;;;;5103284;28;20203;-74
2021/10/18 13:15:13;;;;;;;0.60;0.60;;;20.00;39.00;;;;;;5102403;28;20296;-75
2021/10/18 13:17:42;;;;;;;0.50;0.50;;;19.90;39.20;;;;;;5100565;27;20199;-74
2021/10/18 13:20:11;;;;;;;0.70;0.70;;;19.70;39.30;;;;;;5104830;28;20199;-74
2021/10/18 13:22:38;;;;;;;0.75;0.68;;;19.60;39.70;;;;;;5101969;28;20220;-75
2021/10/18 13:25:07;;;;;;;0.80;0.80;;;19.40;39.80;;;;;;5105625;28;20291;-75
2021/10/18 13:27:38;;;;;;;0.50;0.50;;;19.30;40.10;;;;;;5108269;27;20207;-75
2021/10/18 13:30:07;;;;;;;0.60;0.60;;;19.10;40.10;;;;;;5108819;27;20198;-75
2021/10/18 13:32:34;;;;;;;0.63;0.63;;;19.00;40.30;;;;;;5112975;27;20195;-75
2021/10/18 13:35:03;;;;;;;0.50;0.50;;;18.80;40.30;;;;;;5111636;27;20183;-75
2021/10/18 13:37:30;;;;;;;0.50;0.50;;;18.70;40.50;;;;;;5115238;27;20230;-75
2021/10/18 13:39:57;;;;;;;0.40;0.40;;;18.60;40.60;;;;;;5109020;27;20270;-75
2021/10/18 13:42:25;;;;;;;0.50;0.50;;;18.50;40.80;;;;;;5103681;27;20243;-75
2021/10/18 13:44:52;;;;;;;0.70;0.50;;;18.40;40.90;;;;;;5109034;27;20801;-75
2021/10/18 13:47:19;;;;;;;0.50;0.50;;;18.30;41.10;;;;;;5109850;27;20702;-74
2021/10/18 13:49:46;;;;;;;1.17;0.80;;;18.20;41.40;;;;;;5107215;27;20294;-74
2021/10/18 13:52:15;;;;;;;1.25;0.70;;;18.00;41.70;;;;;;5114286;27;20578;-75
2021/10/18 13:54:42;;;;;;;1.08;1.08;;;17.90;42.10;;;;;;5107368;27;20195;-75
2021/10/18 13:57:09;;;;;;;2.05;1.15;;;17.70;42.50;;;;;;5114177;27;20212;-74
2021/10/18 13:59:40;;;;;;;1.55;0.80;;;17.50;43.00;;;;;;5108701;27;20233;-74
2021/10/18 14:02:07;;;;;;;3.13;0.80;;;17.30;43.40;;;;;;5107782;27;20209;-75